sensor_id;sensor_type;location;lat;lon;timestamp;P1;P2;P0
72485;PMS5003;60509;47.308;-122.428;2022-07-03T00:00:53;5;5;
72485;PMS5003;60509;47.308;-122.428;2022-07-03T00:03:18;4;3;
72485;PMS5003;60509;47.308;-122.428;2022-07-03T00:05:44;4;3;
72485;PMS5003;60509;47.308;-122.428;2022-07-03T00:08:10;4;4;
72485;PMS5003;60509;47.308;-122.428;2022-07-03T00:10:36;6;4;
72485;PMS5003;60509;47.308;-122.428;2022-07-03T00:13:02;6;5;
72485;PMS5003;60509;47.308;-122.428;2022-07-03T00:15:27;4;4;
72485;PMS5003;60509;47.308;-122.428;2022-07-03T00:17:53;3;3;
72485;PMS5003;60509;47.308;-122.428;2022-07-03T00:20:19;5;5;
72485;PMS5003;60509;47.308;-122.428;2022-07-03T00:22:44;3;3;
72485;PMS5003;60509;47.308;-122.428;2022-07-03T00:25:11;5;5;
72485;PMS5003;60509;47.308;-122.428;2022-07-03T00:27:36;4;4;
72485;PMS5003;60509;47.308;-122.428;2022-07-03T00:30:02;3;3;
72485;PMS5003;60509;47.308;-122.428;2022-07-03T00:32:27;4;4;
72485;PMS5003;60509;47.308;-122.428;2022-07-03T00:34:55;3;3;
72485;PMS5003;60509;47.308;-122.428;2022-07-03T00:37:18;5;5;
72485;PMS5003;60509;47.308;-122.428;2022-07-03T00:39:44;4;4;
72485;PMS5003;60509;47.308;-122.428;2022-07-03T00:42:11;4;4;
72485;PMS5003;60509;47.308;-122.428;2022-07-03T00:44:43;4;4;
72485;PMS5003;60509;47.308;-122.428;2022-07-03T00:47:02;5;5;
72485;PMS5003;60509;47.308;-122.428;2022-07-03T00:49:27;4;4;
72485;PMS5003;60509;47.308;-122.428;2022-07-03T00:51:53;5;4;
72485;PMS5003;60509;47.308;-122.428;2022-07-03T00:54:20;3;3;
72485;PMS5003;60509;47.308;-122.428;2022-07-03T00:56:46;4;4;
72485;PMS5003;60509;47.308;-122.428;2022-07-03T00:59:09;3;2;
72485;PMS5003;60509;47.308;-122.428;2022-07-03T01:01:36;2;2;
72485;PMS5003;60509;47.308;-122.428;2022-07-03T01:04:04;3;3;
72485;PMS5003;60509;47.308;-122.428;2022-07-03T01:06:26;4;4;
72485;PMS5003;60509;47.308;-122.428;2022-07-03T01:08:52;4;4;
72485;PMS5003;60509;47.308;-122.428;2022-07-03T01:11:20;2;2;
72485;PMS5003;60509;47.308;-122.428;2022-07-03T01:13:46;2;2;
72485;PMS5003;60509;47.308;-122.428;2022-07-03T01:16:11;2;2;
72485;PMS5003;60509;47.308;-122.428;2022-07-03T01:18:35;4;4;
72485;PMS5003;60509;47.308;-122.428;2022-07-03T01:20:59;2;2;
72485;PMS5003;60509;47.308;-122.428;2022-07-03T01:23:28;2;2;
72485;PMS5003;60509;47.308;-122.428;2022-07-03T01:25:49;5;4;
72485;PMS5003;60509;47.308;-122.428;2022-07-03T01:28:16;5;5;
72485;PMS5003;60509;47.308;-122.428;2022-07-03T01:30:41;3;3;
72485;PMS5003;60509;47.308;-122.428;2022-07-03T01:33:06;2;2;
72485;PMS5003;60509;47.308;-122.428;2022-07-03T01:35:32;3;3;
72485;PMS5003;60509;47.308;-122.428;2022-07-03T01:37:56;2;2;
72485;PMS5003;60509;47.308;-122.428;2022-07-03T01:40:22;3;3;
72485;PMS5003;60509;47.308;-122.428;2022-07-03T01:42:47;3;3;
72485;PMS5003;60509;47.308;-122.428;2022-07-03T01:45:13;2;2;
72485;PMS5003;60509;47.308;-122.428;2022-07-03T01:47:38;3;2;
72485;PMS5003;60509;47.308;-122.428;2022-07-03T01:50:03;3;2;
72485;PMS5003;60509;47.308;-122.428;2022-07-03T01:52:29;3;3;
72485;PMS5003;60509;47.308;-122.428;2022-07-03T01:54:54;4;4;
72485;PMS5003;60509;47.308;-122.428;2022-07-03T01:57:19;5;5;
72485;PMS5003;60509;47.308;-122.428;2022-07-03T01:59:44;4;3;
72485;PMS5003;60509;47.308;-122.428;2022-07-03T02:02:13;4;4;
72485;PMS5003;60509;47.308;-122.428;2022-07-03T02:04:37;4;4;
72485;PMS5003;60509;47.308;-122.428;2022-07-03T02:07:01;3;3;
72485;PMS5003;60509;47.308;-122.428;2022-07-03T02:09:29;5;5;
72485;PMS5003;60509;47.308;-122.428;2022-07-03T02:11:52;5;5;
72485;PMS5003;60509;47.308;-122.428;2022-07-03T02:14:18;6;6;
72485;PMS5003;60509;47.308;-122.428;2022-07-03T02:16:49;5;5;
72485;PMS5003;60509;47.308;-122.428;2022-07-03T02:19:09;7;6;
72485;PMS5003;60509;47.308;-122.428;2022-07-03T02:21:34;4;4;
72485;PMS5003;60509;47.308;-122.428;2022-07-03T02:24:03;3;3;
72485;PMS5003;60509;47.308;-122.428;2022-07-03T02:26:26;5;5;
72485;PMS5003;60509;47.308;-122.428;2022-07-03T02:28:54;6;5;
72485;PMS5003;60509;47.308;-122.428;2022-07-03T02:31:17;5;5;
72485;PMS5003;60509;47.308;-122.428;2022-07-03T02:33:42;4;4;
72485;PMS5003;60509;47.308;-122.428;2022-07-03T02:36:10;4;4;
72485;PMS5003;60509;47.308;-122.428;2022-07-03T02:38:34;5;4;
72485;PMS5003;60509;47.308;-122.428;2022-07-03T02:41:01;6;6;
72485;PMS5003;60509;47.308;-122.428;2022-07-03T02:43:28;5;5;
72485;PMS5003;60509;47.308;-122.428;2022-07-03T02:45:54;6;6;
72485;PMS5003;60509;47.308;-122.428;2022-07-03T02:48:18;6;6;
72485;PMS5003;60509;47.308;-122.428;2022-07-03T02:50:43;7;6;
72485;PMS5003;60509;47.308;-122.428;2022-07-03T02:53:11;6;6;
72485;PMS5003;60509;47.308;-122.428;2022-07-03T02:55:40;7;7;
72485;PMS5003;60509;47.308;-122.428;2022-07-03T02:58:04;9;8;
72485;PMS5003;60509;47.308;-122.428;2022-07-03T03:00:26;6;6;
72485;PMS5003;60509;47.308;-122.428;2022-07-03T03:02:52;8;8;
72485;PMS5003;60509;47.308;-122.428;2022-07-03T03:05:20;16;12;
72485;PMS5003;60509;47.308;-122.428;2022-07-03T03:07:45;5;5;
72485;PMS5003;60509;47.308;-122.428;2022-07-03T03:10:09;7;7;
72485;PMS5003;60509;47.308;-122.428;2022-07-03T03:12:35;7;7;
72485;PMS5003;60509;47.308;-122.428;2022-07-03T03:15:01;6;5;
72485;PMS5003;60509;47.308;-122.428;2022-07-03T03:17:27;7;6;
72485;PMS5003;60509;47.308;-122.428;2022-07-03T03:19:55;8;8;
72485;PMS5003;60509;47.308;-122.428;2022-07-03T03:22:27;17;15;
72485;PMS5003;60509;47.308;-122.428;2022-07-03T03:24:44;19;18;
72485;PMS5003;60509;47.308;-122.428;2022-07-03T03:27:10;15;12;
72485;PMS5003;60509;47.308;-122.428;2022-07-03T03:29:35;10;10;
72485;PMS5003;60509;47.308;-122.428;2022-07-03T03:32:01;7;7;
72485;PMS5003;60509;47.308;-122.428;2022-07-03T03:34:27;8;8;
72485;PMS5003;60509;47.308;-122.428;2022-07-03T03:36:53;9;9;
72485;PMS5003;60509;47.308;-122.428;2022-07-03T03:39:19;9;9;
72485;PMS5003;60509;47.308;-122.428;2022-07-03T03:41:45;7;6;
72485;PMS5003;60509;47.308;-122.428;2022-07-03T03:44:11;10;9;
72485;PMS5003;60509;47.308;-122.428;2022-07-03T03:46:36;7;7;
72485;PMS5003;60509;47.308;-122.428;2022-07-03T03:49:02;14;12;
72485;PMS5003;60509;47.308;-122.428;2022-07-03T03:51:28;17;16;
72485;PMS5003;60509;47.308;-122.428;2022-07-03T03:53:54;18;16;
72485;PMS5003;60509;47.308;-122.428;2022-07-03T03:56:20;11;9;
72485;PMS5003;60509;47.308;-122.428;2022-07-03T03:58:46;10;10;
72485;PMS5003;60509;47.308;-122.428;2022-07-03T04:01:12;14;12;
72485;PMS5003;60509;47.308;-122.428;2022-07-03T04:03:38;12;9;
72485;PMS5003;60509;47.308;-122.428;2022-07-03T04:06:04;8;8;
72485;PMS5003;60509;47.308;-122.428;2022-07-03T04:08:30;10;8;
72485;PMS5003;60509;47.308;-122.428;2022-07-03T04:10:56;8;8;
72485;PMS5003;60509;47.308;-122.428;2022-07-03T04:13:22;9;7;
72485;PMS5003;60509;47.308;-122.428;2022-07-03T04:15:48;10;10;
72485;PMS5003;60509;47.308;-122.428;2022-07-03T04:18:14;8;7;
72485;PMS5003;60509;47.308;-122.428;2022-07-03T04:20:40;6;5;
72485;PMS5003;60509;47.308;-122.428;2022-07-03T04:23:06;5;4;
72485;PMS5003;60509;47.308;-122.428;2022-07-03T04:25:32;6;5;
72485;PMS5003;60509;47.308;-122.428;2022-07-03T04:27:58;2;2;
72485;PMS5003;60509;47.308;-122.428;2022-07-03T04:30:24;3;3;
72485;PMS5003;60509;47.308;-122.428;2022-07-03T04:32:50;3;3;
72485;PMS5003;60509;47.308;-122.428;2022-07-03T04:35:16;2;2;
72485;PMS5003;60509;47.308;-122.428;2022-07-03T04:37:41;3;3;
72485;PMS5003;60509;47.308;-122.428;2022-07-03T04:40:07;2;2;
72485;PMS5003;60509;47.308;-122.428;2022-07-03T04:42:33;3;2;
72485;PMS5003;60509;47.308;-122.428;2022-07-03T04:44:59;3;3;
72485;PMS5003;60509;47.308;-122.428;2022-07-03T04:47:24;2;2;
72485;PMS5003;60509;47.308;-122.428;2022-07-03T04:49:50;3;3;
72485;PMS5003;60509;47.308;-122.428;2022-07-03T04:52:16;4;3;
72485;PMS5003;60509;47.308;-122.428;2022-07-03T04:54:42;1;1;
72485;PMS5003;60509;47.308;-122.428;2022-07-03T04:57:08;3;3;
72485;PMS5003;60509;47.308;-122.428;2022-07-03T04:59:34;5;5;
72485;PMS5003;60509;47.308;-122.428;2022-07-03T05:02:00;6;5;
72485;PMS5003;60509;47.308;-122.428;2022-07-03T05:04:26;4;3;
72485;PMS5003;60509;47.308;-122.428;2022-07-03T05:06:52;2;2;
72485;PMS5003;60509;47.308;-122.428;2022-07-03T05:09:18;2;2;
72485;PMS5003;60509;47.308;-122.428;2022-07-03T05:11:43;3;3;
72485;PMS5003;60509;47.308;-122.428;2022-07-03T05:14:08;5;5;
72485;PMS5003;60509;47.308;-122.428;2022-07-03T05:16:33;3;3;
72485;PMS5003;60509;47.308;-122.428;2022-07-03T05:18:58;4;4;
72485;PMS5003;60509;47.308;-122.428;2022-07-03T05:21:23;4;4;
72485;PMS5003;60509;47.308;-122.428;2022-07-03T05:23:48;6;6;
72485;PMS5003;60509;47.308;-122.428;2022-07-03T05:26:13;4;4;
72485;PMS5003;60509;47.308;-122.428;2022-07-03T05:28:39;4;4;
72485;PMS5003;60509;47.308;-122.428;2022-07-03T05:31:04;4;4;
72485;PMS5003;60509;47.308;-122.428;2022-07-03T05:33:29;3;3;
72485;PMS5003;60509;47.308;-122.428;2022-07-03T05:35:54;4;3;
72485;PMS5003;60509;47.308;-122.428;2022-07-03T05:38:19;6;6;
72485;PMS5003;60509;47.308;-122.428;2022-07-03T05:40:44;6;5;
72485;PMS5003;60509;47.308;-122.428;2022-07-03T05:43:09;6;5;
72485;PMS5003;60509;47.308;-122.428;2022-07-03T05:45:34;7;6;
72485;PMS5003;60509;47.308;-122.428;2022-07-03T05:47:59;5;5;
72485;PMS5003;60509;47.308;-122.428;2022-07-03T05:50:24;4;4;
72485;PMS5003;60509;47.308;-122.428;2022-07-03T05:52:49;5;5;
72485;PMS5003;60509;47.308;-122.428;2022-07-03T05:55:14;7;7;
72485;PMS5003;60509;47.308;-122.428;2022-07-03T05:57:39;7;7;
72485;PMS5003;60509;47.308;-122.428;2022-07-03T06:00:05;6;6;
72485;PMS5003;60509;47.308;-122.428;2022-07-03T06:02:29;4;3;
72485;PMS5003;60509;47.308;-122.428;2022-07-03T06:04:54;4;4;
72485;PMS5003;60509;47.308;-122.428;2022-07-03T06:07:19;6;6;
72485;PMS5003;60509;47.308;-122.428;2022-07-03T06:09:44;5;4;
72485;PMS5003;60509;47.308;-122.428;2022-07-03T06:12:10;5;5;
72485;PMS5003;60509;47.308;-122.428;2022-07-03T06:14:35;6;6;
72485;PMS5003;60509;47.308;-122.428;2022-07-03T06:17:00;5;5;
72485;PMS5003;60509;47.308;-122.428;2022-07-03T06:19:25;7;7;
72485;PMS5003;60509;47.308;-122.428;2022-07-03T06:21:50;5;5;
72485;PMS5003;60509;47.308;-122.428;2022-07-03T06:24:15;7;7;
72485;PMS5003;60509;47.308;-122.428;2022-07-03T06:26:40;6;6;
72485;PMS5003;60509;47.308;-122.428;2022-07-03T06:29:05;6;5;
72485;PMS5003;60509;47.308;-122.428;2022-07-03T06:31:30;6;6;
72485;PMS5003;60509;47.308;-122.428;2022-07-03T06:33:55;6;6;
72485;PMS5003;60509;47.308;-122.428;2022-07-03T06:36:20;7;6;
72485;PMS5003;60509;47.308;-122.428;2022-07-03T06:38:45;6;6;
72485;PMS5003;60509;47.308;-122.428;2022-07-03T06:41:10;6;5;
72485;PMS5003;60509;47.308;-122.428;2022-07-03T06:43:35;5;4;
72485;PMS5003;60509;47.308;-122.428;2022-07-03T06:46:01;8;6;
72485;PMS5003;60509;47.308;-122.428;2022-07-03T06:48:26;6;5;
72485;PMS5003;60509;47.308;-122.428;2022-07-03T06:50:51;5;5;
72485;PMS5003;60509;47.308;-122.428;2022-07-03T06:53:17;4;4;
72485;PMS5003;60509;47.308;-122.428;2022-07-03T06:55:41;5;5;
72485;PMS5003;60509;47.308;-122.428;2022-07-03T06:58:06;6;6;
72485;PMS5003;60509;47.308;-122.428;2022-07-03T07:00:31;7;6;
72485;PMS5003;60509;47.308;-122.428;2022-07-03T07:02:56;5;5;
72485;PMS5003;60509;47.308;-122.428;2022-07-03T07:05:22;4;2;
72485;PMS5003;60509;47.308;-122.428;2022-07-03T07:07:47;3;3;
72485;PMS5003;60509;47.308;-122.428;2022-07-03T07:10:12;6;5;
72485;PMS5003;60509;47.308;-122.428;2022-07-03T07:12:37;5;4;
72485;PMS5003;60509;47.308;-122.428;2022-07-03T07:15:02;5;5;
72485;PMS5003;60509;47.308;-122.428;2022-07-03T07:17:27;4;4;
72485;PMS5003;60509;47.308;-122.428;2022-07-03T07:19:54;5;4;
72485;PMS5003;60509;47.308;-122.428;2022-07-03T07:22:17;4;4;
72485;PMS5003;60509;47.308;-122.428;2022-07-03T07:24:42;4;4;
72485;PMS5003;60509;47.308;-122.428;2022-07-03T07:27:08;5;5;
72485;PMS5003;60509;47.308;-122.428;2022-07-03T07:29:33;5;4;
72485;PMS5003;60509;47.308;-122.428;2022-07-03T07:31:58;5;4;
72485;PMS5003;60509;47.308;-122.428;2022-07-03T07:34:23;8;8;
72485;PMS5003;60509;47.308;-122.428;2022-07-03T07:36:48;5;5;
72485;PMS5003;60509;47.308;-122.428;2022-07-03T07:39:13;7;6;
72485;PMS5003;60509;47.308;-122.428;2022-07-03T07:41:38;7;7;
72485;PMS5003;60509;47.308;-122.428;2022-07-03T07:44:04;6;5;
72485;PMS5003;60509;47.308;-122.428;2022-07-03T07:46:28;6;5;
72485;PMS5003;60509;47.308;-122.428;2022-07-03T07:48:53;7;6;
72485;PMS5003;60509;47.308;-122.428;2022-07-03T07:51:18;8;7;
72485;PMS5003;60509;47.308;-122.428;2022-07-03T07:53:44;5;5;
72485;PMS5003;60509;47.308;-122.428;2022-07-03T07:56:09;5;5;
72485;PMS5003;60509;47.308;-122.428;2022-07-03T07:58:34;5;5;
72485;PMS5003;60509;47.308;-122.428;2022-07-03T08:00:59;3;3;
72485;PMS5003;60509;47.308;-122.428;2022-07-03T08:03:24;5;5;
72485;PMS5003;60509;47.308;-122.428;2022-07-03T08:05:49;4;3;
72485;PMS5003;60509;47.308;-122.428;2022-07-03T08:08:14;4;4;
72485;PMS5003;60509;47.308;-122.428;2022-07-03T08:10:41;6;4;
72485;PMS5003;60509;47.308;-122.428;2022-07-03T08:13:04;5;4;
72485;PMS5003;60509;47.308;-122.428;2022-07-03T08:15:29;4;3;
72485;PMS5003;60509;47.308;-122.428;2022-07-03T08:17:54;5;5;
72485;PMS5003;60509;47.308;-122.428;2022-07-03T08:20:19;5;5;
72485;PMS5003;60509;47.308;-122.428;2022-07-03T08:22:44;6;6;
72485;PMS5003;60509;47.308;-122.428;2022-07-03T08:25:10;4;4;
72485;PMS5003;60509;47.308;-122.428;2022-07-03T08:27:35;6;5;
72485;PMS5003;60509;47.308;-122.428;2022-07-03T08:30:00;6;5;
72485;PMS5003;60509;47.308;-122.428;2022-07-03T08:32:25;6;5;
72485;PMS5003;60509;47.308;-122.428;2022-07-03T08:34:50;7;7;
72485;PMS5003;60509;47.308;-122.428;2022-07-03T08:37:15;6;6;
72485;PMS5003;60509;47.308;-122.428;2022-07-03T08:39:40;8;7;
72485;PMS5003;60509;47.308;-122.428;2022-07-03T08:42:06;7;6;
72485;PMS5003;60509;47.308;-122.428;2022-07-03T08:44:31;8;7;
72485;PMS5003;60509;47.308;-122.428;2022-07-03T08:46:56;5;5;
72485;PMS5003;60509;47.308;-122.428;2022-07-03T08:49:21;8;8;
72485;PMS5003;60509;47.308;-122.428;2022-07-03T08:51:46;7;7;
72485;PMS5003;60509;47.308;-122.428;2022-07-03T08:54:11;10;8;
72485;PMS5003;60509;47.308;-122.428;2022-07-03T08:56:36;7;6;
72485;PMS5003;60509;47.308;-122.428;2022-07-03T08:59:01;6;6;
72485;PMS5003;60509;47.308;-122.428;2022-07-03T09:01:27;8;7;
72485;PMS5003;60509;47.308;-122.428;2022-07-03T09:03:52;8;6;
72485;PMS5003;60509;47.308;-122.428;2022-07-03T09:06:17;7;7;
72485;PMS5003;60509;47.308;-122.428;2022-07-03T09:08:42;5;5;
72485;PMS5003;60509;47.308;-122.428;2022-07-03T09:11:07;6;5;
72485;PMS5003;60509;47.308;-122.428;2022-07-03T09:13:32;6;6;
72485;PMS5003;60509;47.308;-122.428;2022-07-03T09:15:57;5;4;
72485;PMS5003;60509;47.308;-122.428;2022-07-03T09:18:36;4;4;
72485;PMS5003;60509;47.308;-122.428;2022-07-03T09:20:47;8;7;
72485;PMS5003;60509;47.308;-122.428;2022-07-03T09:23:13;6;6;
72485;PMS5003;60509;47.308;-122.428;2022-07-03T09:25:50;5;4;
72485;PMS5003;60509;47.308;-122.428;2022-07-03T09:28:03;7;7;
72485;PMS5003;60509;47.308;-122.428;2022-07-03T09:30:28;6;6;
72485;PMS5003;60509;47.308;-122.428;2022-07-03T09:32:53;7;6;
72485;PMS5003;60509;47.308;-122.428;2022-07-03T09:35:18;6;6;
72485;PMS5003;60509;47.308;-122.428;2022-07-03T09:37:47;5;5;
72485;PMS5003;60509;47.308;-122.428;2022-07-03T09:40:08;8;7;
72485;PMS5003;60509;47.308;-122.428;2022-07-03T09:42:33;5;4;
72485;PMS5003;60509;47.308;-122.428;2022-07-03T09:44:58;5;5;
72485;PMS5003;60509;47.308;-122.428;2022-07-03T09:47:24;4;3;
72485;PMS5003;60509;47.308;-122.428;2022-07-03T09:49:50;6;5;
72485;PMS5003;60509;47.308;-122.428;2022-07-03T09:52:30;6;6;
72485;PMS5003;60509;47.308;-122.428;2022-07-03T09:54:39;3;3;
72485;PMS5003;60509;47.308;-122.428;2022-07-03T09:57:04;6;5;
72485;PMS5003;60509;47.308;-122.428;2022-07-03T09:59:29;4;4;
72485;PMS5003;60509;47.308;-122.428;2022-07-03T10:01:54;4;3;
72485;PMS5003;60509;47.308;-122.428;2022-07-03T10:04:19;5;2;
72485;PMS5003;60509;47.308;-122.428;2022-07-03T10:06:51;5;5;
72485;PMS5003;60509;47.308;-122.428;2022-07-03T10:09:09;4;4;
72485;PMS5003;60509;47.308;-122.428;2022-07-03T10:11:34;7;7;
72485;PMS5003;60509;47.308;-122.428;2022-07-03T10:14:00;5;4;
72485;PMS5003;60509;47.308;-122.428;2022-07-03T10:16:25;6;4;
72485;PMS5003;60509;47.308;-122.428;2022-07-03T10:18:50;6;5;
72485;PMS5003;60509;47.308;-122.428;2022-07-03T10:21:15;4;3;
72485;PMS5003;60509;47.308;-122.428;2022-07-03T10:23:40;6;4;
72485;PMS5003;60509;47.308;-122.428;2022-07-03T10:26:07;6;5;
72485;PMS5003;60509;47.308;-122.428;2022-07-03T10:28:30;4;3;
72485;PMS5003;60509;47.308;-122.428;2022-07-03T10:30:56;6;5;
72485;PMS5003;60509;47.308;-122.428;2022-07-03T10:33:21;7;7;
72485;PMS5003;60509;47.308;-122.428;2022-07-03T10:35:48;6;6;
72485;PMS5003;60509;47.308;-122.428;2022-07-03T10:38:15;4;4;
72485;PMS5003;60509;47.308;-122.428;2022-07-03T10:40:38;6;5;
72485;PMS5003;60509;47.308;-122.428;2022-07-03T10:43:02;5;5;
72485;PMS5003;60509;47.308;-122.428;2022-07-03T10:45:26;8;7;
72485;PMS5003;60509;47.308;-122.428;2022-07-03T10:47:51;6;6;
72485;PMS5003;60509;47.308;-122.428;2022-07-03T10:50:17;4;4;
72485;PMS5003;60509;47.308;-122.428;2022-07-03T10:52:42;5;5;
72485;PMS5003;60509;47.308;-122.428;2022-07-03T10:55:07;5;5;
72485;PMS5003;60509;47.308;-122.428;2022-07-03T10:57:32;7;7;
72485;PMS5003;60509;47.308;-122.428;2022-07-03T10:59:59;6;5;
72485;PMS5003;60509;47.308;-122.428;2022-07-03T11:02:23;5;5;
72485;PMS5003;60509;47.308;-122.428;2022-07-03T11:05:08;4;4;
72485;PMS5003;60509;47.308;-122.428;2022-07-03T11:07:12;6;3;
72485;PMS5003;60509;47.308;-122.428;2022-07-03T11:09:38;6;5;
72485;PMS5003;60509;47.308;-122.428;2022-07-03T11:12:03;7;5;
72485;PMS5003;60509;47.308;-122.428;2022-07-03T11:14:28;7;7;
72485;PMS5003;60509;47.308;-122.428;2022-07-03T11:17:16;5;4;
72485;PMS5003;60509;47.308;-122.428;2022-07-03T11:19:25;6;6;
72485;PMS5003;60509;47.308;-122.428;2022-07-03T11:21:48;6;5;
72485;PMS5003;60509;47.308;-122.428;2022-07-03T11:24:37;6;6;
72485;PMS5003;60509;47.308;-122.428;2022-07-03T11:26:33;5;4;
72485;PMS5003;60509;47.308;-122.428;2022-07-03T11:28:59;3;3;
72485;PMS5003;60509;47.308;-122.428;2022-07-03T11:31:24;6;6;
72485;PMS5003;60509;47.308;-122.428;2022-07-03T11:33:51;7;6;
72485;PMS5003;60509;47.308;-122.428;2022-07-03T11:36:23;5;5;
72485;PMS5003;60509;47.308;-122.428;2022-07-03T11:38:39;5;5;
72485;PMS5003;60509;47.308;-122.428;2022-07-03T11:41:06;4;4;
72485;PMS5003;60509;47.308;-122.428;2022-07-03T11:43:29;5;5;
72485;PMS5003;60509;47.308;-122.428;2022-07-03T11:45:54;5;5;
72485;PMS5003;60509;47.308;-122.428;2022-07-03T11:48:20;5;5;
72485;PMS5003;60509;47.308;-122.428;2022-07-03T11:50:46;3;3;
72485;PMS5003;60509;47.308;-122.428;2022-07-03T11:53:18;2;2;
72485;PMS5003;60509;47.308;-122.428;2022-07-03T11:55:36;5;5;
72485;PMS5003;60509;47.308;-122.428;2022-07-03T11:58:00;5;4;
72485;PMS5003;60509;47.308;-122.428;2022-07-03T12:00:26;3;3;
72485;PMS5003;60509;47.308;-122.428;2022-07-03T12:02:50;4;4;
72485;PMS5003;60509;47.308;-122.428;2022-07-03T12:05:16;3;3;
72485;PMS5003;60509;47.308;-122.428;2022-07-03T12:07:41;4;3;
72485;PMS5003;60509;47.308;-122.428;2022-07-03T12:10:06;5;4;
72485;PMS5003;60509;47.308;-122.428;2022-07-03T12:12:36;5;5;
72485;PMS5003;60509;47.308;-122.428;2022-07-03T12:14:56;5;4;
72485;PMS5003;60509;47.308;-122.428;2022-07-03T12:17:22;5;5;
72485;PMS5003;60509;47.308;-122.428;2022-07-03T12:19:47;6;6;
72485;PMS5003;60509;47.308;-122.428;2022-07-03T12:22:11;7;6;
72485;PMS5003;60509;47.308;-122.428;2022-07-03T12:24:37;6;5;
72485;PMS5003;60509;47.308;-122.428;2022-07-03T12:27:02;4;4;
72485;PMS5003;60509;47.308;-122.428;2022-07-03T12:29:27;8;7;
72485;PMS5003;60509;47.308;-122.428;2022-07-03T12:31:52;6;6;
72485;PMS5003;60509;47.308;-122.428;2022-07-03T12:34:17;5;5;
72485;PMS5003;60509;47.308;-122.428;2022-07-03T12:36:53;5;5;
72485;PMS5003;60509;47.308;-122.428;2022-07-03T12:39:07;5;4;
72485;PMS5003;60509;47.308;-122.428;2022-07-03T12:41:33;6;4;
72485;PMS5003;60509;47.308;-122.428;2022-07-03T12:43:58;6;5;
72485;PMS5003;60509;47.308;-122.428;2022-07-03T12:46:24;7;6;
72485;PMS5003;60509;47.308;-122.428;2022-07-03T12:48:49;5;4;
72485;PMS5003;60509;47.308;-122.428;2022-07-03T12:51:13;6;6;
72485;PMS5003;60509;47.308;-122.428;2022-07-03T12:53:38;8;8;
72485;PMS5003;60509;47.308;-122.428;2022-07-03T12:56:04;6;5;
72485;PMS5003;60509;47.308;-122.428;2022-07-03T12:58:29;5;5;
72485;PMS5003;60509;47.308;-122.428;2022-07-03T13:00:54;7;7;
72485;PMS5003;60509;47.308;-122.428;2022-07-03T13:03:27;5;4;
72485;PMS5003;60509;47.308;-122.428;2022-07-03T13:05:44;8;7;
72485;PMS5003;60509;47.308;-122.428;2022-07-03T13:08:09;7;6;
72485;PMS5003;60509;47.308;-122.428;2022-07-03T13:10:34;7;6;
72485;PMS5003;60509;47.308;-122.428;2022-07-03T13:12:59;5;5;
72485;PMS5003;60509;47.308;-122.428;2022-07-03T13:15:25;5;5;
72485;PMS5003;60509;47.308;-122.428;2022-07-03T13:17:51;7;6;
72485;PMS5003;60509;47.308;-122.428;2022-07-03T13:20:15;7;7;
72485;PMS5003;60509;47.308;-122.428;2022-07-03T13:22:40;6;6;
72485;PMS5003;60509;47.308;-122.428;2022-07-03T13:25:05;8;7;
72485;PMS5003;60509;47.308;-122.428;2022-07-03T13:27:30;7;6;
72485;PMS5003;60509;47.308;-122.428;2022-07-03T13:29:56;8;7;
72485;PMS5003;60509;47.308;-122.428;2022-07-03T13:32:21;9;7;
72485;PMS5003;60509;47.308;-122.428;2022-07-03T13:34:46;7;7;
72485;PMS5003;60509;47.308;-122.428;2022-07-03T13:37:11;6;6;
72485;PMS5003;60509;47.308;-122.428;2022-07-03T13:39:36;7;7;
72485;PMS5003;60509;47.308;-122.428;2022-07-03T13:42:01;8;7;
72485;PMS5003;60509;47.308;-122.428;2022-07-03T13:44:26;8;6;
72485;PMS5003;60509;47.308;-122.428;2022-07-03T13:46:51;9;6;
72485;PMS5003;60509;47.308;-122.428;2022-07-03T13:49:17;12;7;
72485;PMS5003;60509;47.308;-122.428;2022-07-03T13:51:42;10;7;
72485;PMS5003;60509;47.308;-122.428;2022-07-03T13:54:07;8;8;
72485;PMS5003;60509;47.308;-122.428;2022-07-03T13:56:32;9;9;
72485;PMS5003;60509;47.308;-122.428;2022-07-03T13:58:57;9;7;
72485;PMS5003;60509;47.308;-122.428;2022-07-03T14:01:22;8;7;
72485;PMS5003;60509;47.308;-122.428;2022-07-03T14:03:47;8;8;
72485;PMS5003;60509;47.308;-122.428;2022-07-03T14:06:13;11;10;
72485;PMS5003;60509;47.308;-122.428;2022-07-03T14:08:38;7;7;
72485;PMS5003;60509;47.308;-122.428;2022-07-03T14:11:03;9;8;
72485;PMS5003;60509;47.308;-122.428;2022-07-03T14:13:28;8;7;
72485;PMS5003;60509;47.308;-122.428;2022-07-03T14:15:53;8;8;
72485;PMS5003;60509;47.308;-122.428;2022-07-03T14:18:18;7;6;
72485;PMS5003;60509;47.308;-122.428;2022-07-03T14:20:43;9;8;
72485;PMS5003;60509;47.308;-122.428;2022-07-03T14:23:08;10;9;
72485;PMS5003;60509;47.308;-122.428;2022-07-03T14:25:33;8;8;
72485;PMS5003;60509;47.308;-122.428;2022-07-03T14:27:58;10;7;
72485;PMS5003;60509;47.308;-122.428;2022-07-03T14:30:24;9;7;
72485;PMS5003;60509;47.308;-122.428;2022-07-03T14:32:49;8;7;
72485;PMS5003;60509;47.308;-122.428;2022-07-03T14:35:14;11;9;
72485;PMS5003;60509;47.308;-122.428;2022-07-03T14:37:39;9;6;
72485;PMS5003;60509;47.308;-122.428;2022-07-03T14:40:05;10;8;
72485;PMS5003;60509;47.308;-122.428;2022-07-03T14:42:29;11;10;
72485;PMS5003;60509;47.308;-122.428;2022-07-03T14:44:54;8;7;
72485;PMS5003;60509;47.308;-122.428;2022-07-03T14:47:20;12;10;
72485;PMS5003;60509;47.308;-122.428;2022-07-03T14:49:45;10;9;
72485;PMS5003;60509;47.308;-122.428;2022-07-03T14:52:10;11;8;
72485;PMS5003;60509;47.308;-122.428;2022-07-03T14:54:35;13;11;
72485;PMS5003;60509;47.308;-122.428;2022-07-03T14:57:01;8;8;
72485;PMS5003;60509;47.308;-122.428;2022-07-03T14:59:28;8;8;
72485;PMS5003;60509;47.308;-122.428;2022-07-03T15:01:51;13;12;
72485;PMS5003;60509;47.308;-122.428;2022-07-03T15:04:19;9;9;
72485;PMS5003;60509;47.308;-122.428;2022-07-03T15:06:41;14;12;
72485;PMS5003;60509;47.308;-122.428;2022-07-03T15:09:06;14;13;
72485;PMS5003;60509;47.308;-122.428;2022-07-03T15:11:33;14;11;
72485;PMS5003;60509;47.308;-122.428;2022-07-03T15:13:56;11;11;
72485;PMS5003;60509;47.308;-122.428;2022-07-03T15:16:21;14;12;
72485;PMS5003;60509;47.308;-122.428;2022-07-03T15:18:46;15;11;
72485;PMS5003;60509;47.308;-122.428;2022-07-03T15:21:11;8;7;
72485;PMS5003;60509;47.308;-122.428;2022-07-03T15:23:37;9;8;
72485;PMS5003;60509;47.308;-122.428;2022-07-03T15:26:02;7;7;
72485;PMS5003;60509;47.308;-122.428;2022-07-03T15:28:27;13;9;
72485;PMS5003;60509;47.308;-122.428;2022-07-03T15:30:52;9;8;
72485;PMS5003;60509;47.308;-122.428;2022-07-03T15:33:17;11;8;
72485;PMS5003;60509;47.308;-122.428;2022-07-03T15:35:44;9;8;
72485;PMS5003;60509;47.308;-122.428;2022-07-03T15:38:10;13;9;
72485;PMS5003;60509;47.308;-122.428;2022-07-03T15:40:33;13;11;
72485;PMS5003;60509;47.308;-122.428;2022-07-03T15:43:06;9;7;
72485;PMS5003;60509;47.308;-122.428;2022-07-03T15:45:32;9;8;